WetterOnline ( http://www.wetteronline.de )

Wetter aktuell Groningen

Aktuelles Wetter: Groningen-Eelde (4m)

6-stündlich | Neueste Meldungen
Ortszeit Temperatur Wetter
Di, 18.12. 13:00 6.0° C bedeckt
Di, 18.12. 7:00 5.7° C bedeckt
Di, 18.12. 1:00 4.7° C Nebel
Mo, 17.12. 19:00 6.2° C bedeckt
Mo, 17.12. 13:00 4.4° C bedeckt
Mo, 17.12. 7:00 2.1° C Nebel
Mo, 17.12. 1:00 1.5° C Nebel
So, 16.12. 19:00 0.8° C bedeckt
Ortszeit Temperatur Wetter
Di, 18.12. 15:25 6° C -
Di, 18.12. 15:00 6.4° C wolkig
Di, 18.12. 14:55 7° C -
Di, 18.12. 14:25 6° C bewölkt
Di, 18.12. 14:00 6.6° C bedeckt
Di, 18.12. 13:55 6° C bedeckt
Di, 18.12. 13:25 6° C bedeckt
Di, 18.12. 13:00 6.0° C bedeckt
Di, 18.12. 12:25 6° C bedeckt
Di, 18.12. 12:00 6.0° C bedeckt
Ortszeit Relative Feuchte Sichtweite
Di, 18.12. 13:00 93% 12 km
Di, 18.12. 7:00 99% 1.2 km
Di, 18.12. 1:00 99% 0.4 km
Mo, 17.12. 19:00 93% 17 km
Mo, 17.12. 13:00 97% 2.7 km
Mo, 17.12. 7:00 99% 0.4 km
Mo, 17.12. 1:00 99% 0.7 km
So, 16.12. 19:00 97% 1.4 km
Ortszeit Relative Feuchte Sichtweite
Di, 18.12. 15:25 87% >10 km
Di, 18.12. 15:00 87% 20 km
Di, 18.12. 14:55 81% >10 km
Di, 18.12. 14:25 93% >10 km
Di, 18.12. 14:00 90% 14 km
Di, 18.12. 13:55 93% >10 km
Di, 18.12. 13:25 93% >10 km
Di, 18.12. 13:00 93% 12 km
Di, 18.12. 12:25 93% 9 km
Di, 18.12. 12:00 93% 9 km
Ortszeit Niederschlagsmenge Niederschlagsart
Di, 18.12. 13:00 0.0 l/m2 in 6 Std. -
Di, 18.12. 7:00 0.0 l/m2 in 12 Std. -
Di, 18.12. 1:00 0.0 l/m2 in 6 Std. -
Mo, 17.12. 19:00 1 l/m2 in 12 Std. Regenschauer
Mo, 17.12. 13:00 0.6 l/m2 in 6 Std. Regenschauer
Mo, 17.12. 7:00 0.0 l/m2 in 12 Std. -
Mo, 17.12. 1:00 0.0 l/m2 in 6 Std. -
So, 16.12. 19:00 0.7 l/m2 in 12 Std. Regenschauer
Ortszeit Niederschlagsmenge Niederschlagsart
Di, 18.12. 15:25 keine Meldung -
Di, 18.12. 15:00 0.0 l/m2 in 1 Std. -
Di, 18.12. 14:55 keine Meldung -
Di, 18.12. 14:25 keine Meldung -
Di, 18.12. 14:00 0.0 l/m2 in 1 Std. -
Di, 18.12. 13:55 keine Meldung -
Di, 18.12. 13:25 keine Meldung -
Di, 18.12. 13:00 0.0 l/m2 in 1 Std. -
Di, 18.12. 12:25 keine Meldung -
Di, 18.12. 12:00 0.0 l/m2 in 1 Std. -
Ortszeit Stärke Spitze Richtung
km/h Bft. km/h Grad Sektor
Di, 18.12. 13:00 18 3 36 180° S
Di, 18.12. 7:00 14 3 25 200° S
Di, 18.12. 1:00 11 2 29 210° SW
Mo, 17.12. 19:00 18 3 29 220° SW
Mo, 17.12. 13:00 14 3 22 160° S
Mo, 17.12. 7:00 11 2 22 130° SO
Mo, 17.12. 1:00 11 2 22 180° S
So, 16.12. 19:00 14 3 22 200° S
Ortszeit Stärke Spitze Richtung
km/h Bft. km/h Grad Sektor
Di, 18.12. 15:25 11 2 - 160° S
Di, 18.12. 15:00 14 3 25 160° S
Di, 18.12. 14:55 13 3 - 160° S
Di, 18.12. 14:25 15 3 - 170° S
Di, 18.12. 14:00 14 3 29 170° S
Di, 18.12. 13:55 15 3 - 180° S
Di, 18.12. 13:25 19 3 - 170° S
Di, 18.12. 13:00 18 3 36 180° S
Di, 18.12. 12:25 19 3 - 170° S
Di, 18.12. 12:00 22 4 36 160° S
Ortszeit Untergrenze Bedeckung Gattung
total tief tief mittel hoch
Di, 18.12. 13:00 210 m 8/8 8/8 - - -
Di, 18.12. 7:00 - 8/8 8/8 - - -
Di, 18.12. 1:00 30 m - - - - -
Mo, 17.12. 19:00 - 8/8 8/8 - - -
Mo, 17.12. 13:00 - 8/8 8/8 - - -
Mo, 17.12. 7:00 - 8/8 - - - -
Mo, 17.12. 1:00 - 8/8 - - - -
So, 16.12. 19:00 - 8/8 8/8 - - -
Ortszeit Bedeckungsgrad in Achtel und Wolkenuntergrenze
Di, 18.12. 15:25 keine Wolken(unter 1500 m)
Di, 18.12. 15:00 8(7800m)
Di, 18.12. 14:55 keine Wolken(unter 1500 m)
Di, 18.12. 14:25 1-2(300m) 5-7(390m)
Di, 18.12. 14:00 1(270m) 8(300m)
Di, 18.12. 13:55 1-2(210m) 3-4(270m) 8(300m)
Di, 18.12. 13:25 8(210m)
Di, 18.12. 13:00 8(210m)
Di, 18.12. 12:25 8(180m)
Di, 18.12. 12:00 8(180m)
Ortszeit Luftdruck NN (hPa) Tendenz (hPa in 3 Std.)
Di, 18.12. 13:00 1020 - 1,9
Di, 18.12. 7:00 1022 + 0,1
Di, 18.12. 1:00 1022 + 0,9
Mo, 17.12. 19:00 1019 + 2,3
Mo, 17.12. 13:00 1015 - 0,1
Mo, 17.12. 7:00 1014 + 0,3
Mo, 17.12. 1:00 1013 + 0,5
So, 16.12. 19:00 1011 + 0,8
Ortszeit Luftdruck NN (hPa) Tendenz (hPa in 3 Std.)
Di, 18.12. 15:25 1018 keine Meldung
Di, 18.12. 15:00 1018 - 1,9
Di, 18.12. 14:55 1018 keine Meldung
Di, 18.12. 14:25 1018 keine Meldung
Di, 18.12. 14:00 1019 - 2,6
Di, 18.12. 13:55 1019 keine Meldung
Di, 18.12. 13:25 1019 keine Meldung
Di, 18.12. 13:00 1020 - 1,9
Di, 18.12. 12:25 1019 keine Meldung
Di, 18.12. 12:00 1020 - 1,5
Ortszeit Schneehöhe (cm)
Di, 18.12. 13:00 -
Di, 18.12. 7:00 -
Di, 18.12. 1:00 -
Mo, 17.12. 19:00 -
Mo, 17.12. 13:00 -
Mo, 17.12. 7:00 -
Mo, 17.12. 1:00 -
So, 16.12. 19:00 -
Ortszeit Schneehöhe (cm)
Di, 18.12. 15:25 -
Di, 18.12. 15:00 -
Di, 18.12. 14:55 -
Di, 18.12. 14:25 -
Di, 18.12. 14:00 -
Di, 18.12. 13:55 -
Di, 18.12. 13:25 -
Di, 18.12. 13:00 -
Di, 18.12. 12:25 -
Di, 18.12. 12:00 -
Link zu dieser Seite / Seite empfehlen

Das Wetter in ...